Time;durP1;ratioP1;P1;durP2;ratioP2;P2;SDS_P1;SDS_P2;PMS_P1;PMS_P2;Temp;Humidity;BMP_temperature;BMP_pressure;BME280_temperature;BME280_humidity;BME280_pressure;Samples;Min_cycle;Max_cycle;Signal;HPM_P1;HPM_P2
2021/07/13 00:02:11;;;;;;;12.73;11.47;;;;;;;;;;5073501;28;20546;-60
2021/07/13 00:04:38;;;;;;;11.93;10.83;;;;;;;;;;5073032;28;20451;-60
2021/07/13 00:07:06;;;;;;;12.17;11.10;;;;;;;;;;5072988;28;20465;-60
2021/07/13 00:09:33;;;;;;;12.80;11.47;;;;;;;;;;5073252;28;20455;-60
2021/07/13 00:12:00;;;;;;;11.73;10.73;;;;;;;;;;5074762;28;20841;-60
2021/07/13 00:14:28;;;;;;;13.67;12.37;;;;;;;;;;5076603;28;20485;-61
2021/07/13 00:16:55;;;;;;;12.87;11.40;;;;;;;;;;5073246;28;20914;-60
2021/07/13 00:19:24;;;;;;;12.73;11.47;;;;;;;;;;5072805;28;20844;-58
2021/07/13 00:21:51;;;;;;;11.53;10.37;;;;;;;;;;5072884;28;20516;-60
2021/07/13 00:24:18;;;;;;;12.30;11.17;;;;;;;;;;5076039;28;20439;-59
2021/07/13 00:26:46;;;;;;;13.37;12.07;;;;;;;;;;5077437;28;20850;-60
2021/07/13 00:29:13;;;;;;;14.87;13.67;;;;;;;;;;5077166;28;20451;-60
2021/07/13 00:31:40;;;;;;;13.03;12.03;;;;;;;;;;5077316;28;20513;-60
2021/07/13 00:34:07;;;;;;;13.73;12.63;;;;;;;;;;5077427;28;20923;-60
2021/07/13 00:36:36;;;;;;;15.10;13.80;;;;;;;;;;5077270;28;20495;-58
2021/07/13 00:39:04;;;;;;;12.53;11.50;;;;;;;;;;5076754;28;20494;-60
2021/07/13 00:41:34;;;;;;;13.73;12.67;;;;;;;;;;5077037;28;20440;-59
2021/07/13 00:44:01;;;;;;;14.40;13.03;;;;;;;;;;5076976;28;20516;-60
2021/07/13 00:46:28;;;;;;;13.80;12.80;;;;;;;;;;5076995;28;20444;-60
2021/07/13 00:48:56;;;;;;;13.63;12.43;;;;;;;;;;5077733;28;20893;-59
2021/07/13 00:51:23;;;;;;;15.23;13.70;;;;;;;;;;5076507;28;20498;-60
2021/07/13 00:53:52;;;;;;;14.27;12.97;;;;;;;;;;5076800;28;20468;-59
2021/07/13 00:56:19;;;;;;;14.10;12.77;;;;;;;;;;5076745;28;20471;-60
2021/07/13 00:58:46;;;;;;;16.00;14.40;;;;;;;;;;5076278;28;20867;-60
2021/07/13 01:01:14;;;;;;;14.73;13.53;;;;;;;;;;5076543;28;20443;-60
2021/07/13 01:03:41;;;;;;;13.57;12.40;;;;;;;;;;5076210;28;20485;-59
2021/07/13 01:06:11;;;;;;;17.30;15.90;;;;;;;;;;5076152;28;20508;-60
2021/07/13 01:08:43;;;;;;;15.50;14.20;;;;;;;;;;5076173;28;20486;-60
2021/07/13 01:11:13;;;;;;;15.90;14.60;;;;;;;;;;5076144;28;20432;-59
2021/07/13 01:13:42;;;;;;;16.67;14.90;;;;;;;;;;5076108;28;20528;-60
2021/07/13 01:16:12;;;;;;;14.90;13.70;;;;;;;;;;5076420;28;20503;-60
2021/07/13 01:18:42;;;;;;;15.23;13.93;;;;;;;;;;5076425;28;20439;-60
2021/07/13 01:21:28;;;;;;;15.47;14.13;;;;;;;;;;5075981;28;20494;-61
2021/07/13 01:24:04;;;;;;;14.77;13.30;;;;;;;;;;5076179;28;20509;-60
2021/07/13 01:26:37;;;;;;;16.53;15.23;;;;;;;;;;5076373;28;20513;-60
2021/07/13 01:29:07;;;;;;;16.37;14.87;;;;;;;;;;5075866;28;20515;-60
2021/07/13 01:31:36;;;;;;;15.80;14.60;;;;;;;;;;5076060;28;20496;-60
2021/07/13 01:34:07;;;;;;;17.23;15.47;;;;;;;;;;5075595;28;20483;-60
2021/07/13 01:36:37;;;;;;;18.10;16.37;;;;;;;;;;5075299;28;20832;-60
2021/07/13 01:39:06;;;;;;;16.70;15.13;;;;;;;;;;5076079;28;20431;-59
2021/07/13 01:41:34;;;;;;;17.30;15.70;;;;;;;;;;5075449;28;21000;-60
2021/07/13 01:44:02;;;;;;;18.03;16.50;;;;;;;;;;5075926;28;20489;-60
2021/07/13 01:46:31;;;;;;;19.23;17.67;;;;;;;;;;5075970;28;20456;-59
2021/07/13 01:48:59;;;;;;;19.03;17.53;;;;;;;;;;5076012;28;20493;-59
2021/07/13 01:51:27;;;;;;;18.80;17.20;;;;;;;;;;5075675;28;20558;-60
2021/07/13 01:53:54;;;;;;;19.23;17.50;;;;;;;;;;5078758;28;20482;-60
2021/07/13 01:56:22;;;;;;;19.20;17.70;;;;;;;;;;5078067;28;20447;-59
2021/07/13 01:58:50;;;;;;;19.03;17.53;;;;;;;;;;5075586;28;20447;-60
2021/07/13 02:01:20;;;;;;;19.13;17.47;;;;;;;;;;5075557;28;20446;-60
2021/07/13 02:03:50;;;;;;;18.90;17.20;;;;;;;;;;5075715;28;20427;-60
2021/07/13 02:06:18;;;;;;;20.67;18.87;;;;;;;;;;5075300;28;20509;-60
2021/07/13 02:08:46;;;;;;;20.37;18.40;;;;;;;;;;5075409;28;20500;-59
2021/07/13 02:11:13;;;;;;;19.73;18.03;;;;;;;;;;5075616;28;20789;-59
2021/07/13 02:13:41;;;;;;;21.40;19.50;;;;;;;;;;5075059;28;20483;-59
2021/07/13 02:16:08;;;;;;;21.13;19.43;;;;;;;;;;5075220;28;20451;-61
2021/07/13 02:18:36;;;;;;;19.57;17.80;;;;;;;;;;5075250;28;20440;-61
2021/07/13 02:21:05;;;;;;;21.90;19.97;;;;;;;;;;5074789;28;20496;-60
2021/07/13 02:23:32;;;;;;;20.20;18.40;;;;;;;;;;5075077;28;20463;-60
2021/07/13 02:26:03;;;;;;;20.50;18.80;;;;;;;;;;5075045;28;20501;-60
2021/07/13 02:28:31;;;;;;;21.50;19.80;;;;;;;;;;5075103;28;20431;-61
2021/07/13 02:31:01;;;;;;;21.23;19.37;;;;;;;;;;5075065;28;20501;-61
2021/07/13 02:33:30;;;;;;;21.43;19.73;;;;;;;;;;5074768;28;20478;-61
2021/07/13 02:36:00;;;;;;;22.37;20.37;;;;;;;;;;5074806;28;20794;-60
2021/07/13 02:38:29;;;;;;;22.17;20.10;;;;;;;;;;5074753;28;20501;-60
2021/07/13 02:40:57;;;;;;;23.27;20.63;;;;;;;;;;5074846;28;20447;-60
2021/07/13 02:43:24;;;;;;;22.70;20.80;;;;;;;;;;5074313;28;20463;-60
2021/07/13 02:45:52;;;;;;;22.03;20.10;;;;;;;;;;5074642;28;20477;-59
2021/07/13 02:48:20;;;;;;;21.70;19.90;;;;;;;;;;5073957;28;20443;-60
2021/07/13 02:50:48;;;;;;;22.73;20.83;;;;;;;;;;5074462;28;20451;-60
2021/07/13 02:53:16;;;;;;;23.17;21.37;;;;;;;;;;5074521;28;20540;-60
2021/07/13 02:55:46;;;;;;;21.30;19.50;;;;;;;;;;5074614;28;20435;-61
2021/07/13 02:58:13;;;;;;;22.37;20.30;;;;;;;;;;5074745;28;20496;-60
2021/07/13 03:00:40;;;;;;;23.77;21.23;;;;;;;;;;5074356;28;20498;-61
2021/07/13 03:03:09;;;;;;;22.73;20.53;;;;;;;;;;5074307;28;20475;-60
2021/07/13 03:05:36;;;;;;;21.73;19.60;;;;;;;;;;5074292;28;20446;-59
2021/07/13 03:08:04;;;;;;;21.40;19.60;;;;;;;;;;5074102;28;20532;-60
2021/07/13 03:10:32;;;;;;;23.03;20.80;;;;;;;;;;5073990;28;20854;-59
2021/07/13 03:13:00;;;;;;;24.53;21.53;;;;;;;;;;5074098;28;20865;-60
2021/07/13 03:15:30;;;;;;;23.60;21.50;;;;;;;;;;5073986;28;20912;-60
2021/07/13 03:17:58;;;;;;;23.53;21.43;;;;;;;;;;5073773;28;20540;-60
2021/07/13 03:20:27;;;;;;;24.97;22.77;;;;;;;;;;5074120;28;20512;-60
2021/07/13 03:22:54;;;;;;;24.47;21.70;;;;;;;;;;5073932;28;20471;-58
2021/07/13 03:25:24;;;;;;;24.00;21.93;;;;;;;;;;5073914;28;20492;-60
2021/07/13 03:27:52;;;;;;;24.00;21.87;;;;;;;;;;5074206;28;20443;-61
2021/07/13 03:30:41;;;;;;;24.60;22.50;;;;;;;;;;5073909;28;20861;-60
2021/07/13 03:33:09;;;;;;;22.73;20.77;;;;;;;;;;5073535;28;20451;-60
2021/07/13 03:35:36;;;;;;;23.93;21.90;;;;;;;;;;5086359;28;20479;-60
2021/07/13 03:38:03;;;;;;;23.43;21.33;;;;;;;;;;5074952;28;20504;-60
2021/07/13 03:40:31;;;;;;;22.93;20.97;;;;;;;;;;5074504;28;20997;-60
2021/07/13 03:42:58;;;;;;;24.37;22.37;;;;;;;;;;5076544;28;20489;-59
2021/07/13 03:45:29;;;;;;;24.10;21.80;;;;;;;;;;5074855;28;20436;-59
2021/07/13 03:47:57;;;;;;;23.73;21.53;;;;;;;;;;5074006;28;20518;-61
2021/07/13 03:50:26;;;;;;;24.33;21.57;;;;;;;;;;5073302;28;20446;-61
2021/07/13 03:52:53;;;;;;;23.60;21.70;;;;;;;;;;5073477;28;20478;-59
2021/07/13 03:55:20;;;;;;;23.80;21.70;;;;;;;;;;5072984;28;20993;-60
2021/07/13 03:57:48;;;;;;;24.00;21.90;;;;;;;;;;5073132;28;20451;-60
2021/07/13 04:00:17;;;;;;;22.40;20.40;;;;;;;;;;5073053;28;20447;-59
2021/07/13 04:02:46;;;;;;;24.00;21.90;;;;;;;;;;5073437;28;20517;-60
2021/07/13 04:08:19;;;;;;;21.33;19.70;;;;;;;;;;5091426;27;21118;-59
2021/07/13 04:10:46;;;;;;;20.13;18.37;;;;;;;;;;5090769;28;20511;-60
2021/07/13 04:13:14;;;;;;;18.93;17.33;;;;;;;;;;5090732;28;20467;-59
2021/07/13 04:15:42;;;;;;;20.07;17.97;;;;;;;;;;5090632;28;20447;-59
2021/07/13 04:18:09;;;;;;;18.70;17.30;;;;;;;;;;5090344;28;20440;-59
2021/07/13 04:20:36;;;;;;;18.80;16.90;;;;;;;;;;5090644;28;20522;-60
2021/07/13 04:23:04;;;;;;;19.17;17.23;;;;;;;;;;5090174;28;20527;-59
2021/07/13 04:25:32;;;;;;;16.43;15.10;;;;;;;;;;5090429;28;20507;-59
2021/07/13 04:28:00;;;;;;;18.40;16.83;;;;;;;;;;5090293;28;20535;-59
2021/07/13 04:30:27;;;;;;;16.03;14.53;;;;;;;;;;5090372;28;20442;-59
2021/07/13 04:32:54;;;;;;;16.43;14.77;;;;;;;;;;5090226;28;20471;-59
2021/07/13 04:35:21;;;;;;;20.27;16.20;;;;;;;;;;5089997;28;20443;-58
2021/07/13 04:37:49;;;;;;;13.93;12.93;;;;;;;;;;5090247;28;20496;-59
2021/07/13 04:40:16;;;;;;;16.43;15.07;;;;;;;;;;5090136;28;20494;-59
2021/07/13 04:42:45;;;;;;;15.60;14.27;;;;;;;;;;5090058;28;20471;-58
2021/07/13 04:45:12;;;;;;;14.80;13.60;;;;;;;;;;5089632;28;20805;-58
2021/07/13 04:47:40;;;;;;;14.87;13.87;;;;;;;;;;5089882;28;20526;-59
2021/07/13 04:50:08;;;;;;;15.00;13.83;;;;;;;;;;5089614;28;20453;-60
2021/07/13 04:52:35;;;;;;;16.40;15.00;;;;;;;;;;5090377;28;20524;-59
2021/07/13 04:55:02;;;;;;;15.60;14.30;;;;;;;;;;5090821;28;20448;-58
2021/07/13 04:57:30;;;;;;;15.07;13.97;;;;;;;;;;5090597;28;20503;-59
2021/07/13 04:59:58;;;;;;;15.37;14.17;;;;;;;;;;5090992;28;20497;-59
2021/07/13 05:02:25;;;;;;;15.00;13.70;;;;;;;;;;5089317;28;20973;-60
2021/07/13 05:04:53;;;;;;;14.77;13.57;;;;;;;;;;5089693;28;20472;-60
2021/07/13 05:07:22;;;;;;;14.83;13.63;;;;;;;;;;5088893;28;20604;-60
2021/07/13 05:09:49;;;;;;;15.70;14.27;;;;;;;;;;5089589;28;20452;-59
2021/07/13 05:12:16;;;;;;;14.97;13.67;;;;;;;;;;5089413;28;20479;-60
2021/07/13 05:14:43;;;;;;;15.10;13.73;;;;;;;;;;5089561;28;20981;-59
2021/07/13 05:17:12;;;;;;;15.00;13.50;;;;;;;;;;5090612;28;20454;-59
2021/07/13 05:19:40;;;;;;;15.33;14.03;;;;;;;;;;5076498;28;20444;-60
2021/07/13 05:22:09;;;;;;;14.73;13.47;;;;;;;;;;5075969;28;20526;-60
2021/07/13 05:24:36;;;;;;;15.07;13.47;;;;;;;;;;5076025;28;20461;-59
2021/07/13 05:27:04;;;;;;;14.97;13.63;;;;;;;;;;5077436;28;20534;-59
2021/07/13 05:29:32;;;;;;;14.73;13.63;;;;;;;;;;5075798;28;20614;-59
2021/07/13 05:32:00;;;;;;;15.47;14.27;;;;;;;;;;5075779;28;20812;-60
2021/07/13 05:34:28;;;;;;;15.90;14.37;;;;;;;;;;5075236;28;20444;-60
2021/07/13 05:36:56;;;;;;;14.37;13.10;;;;;;;;;;5075780;28;20439;-59
2021/07/13 05:39:23;;;;;;;15.53;14.27;;;;;;;;;;5075286;28;21014;-60
2021/07/13 05:41:50;;;;;;;14.73;13.60;;;;;;;;;;5075443;28;20519;-60
2021/07/13 05:44:17;;;;;;;14.60;13.50;;;;;;;;;;5075423;28;20522;-60
2021/07/13 05:46:45;;;;;;;14.40;13.30;;;;;;;;;;5075215;28;20899;-60
2021/07/13 05:49:12;;;;;;;14.13;12.83;;;;;;;;;;5075138;28;20502;-60
2021/07/13 05:51:40;;;;;;;13.37;12.37;;;;;;;;;;5075205;28;20503;-60
2021/07/13 05:54:08;;;;;;;14.23;12.90;;;;;;;;;;5074814;28;20511;-59
2021/07/13 05:56:35;;;;;;;15.93;13.77;;;;;;;;;;5074752;28;20494;-59
2021/07/13 05:59:02;;;;;;;14.33;13.20;;;;;;;;;;5075045;28;20504;-59
2021/07/13 06:01:29;;;;;;;14.70;13.40;;;;;;;;;;5074785;28;20454;-63
2021/07/13 06:03:56;;;;;;;13.97;12.80;;;;;;;;;;5074717;28;20445;-61
2021/07/13 06:06:26;;;;;;;15.87;12.80;;;;;;;;;;5074794;28;20469;-61
2021/07/13 06:08:55;;;;;;;14.63;13.47;;;;;;;;;;5074977;28;20473;-61
2021/07/13 06:11:22;;;;;;;13.90;12.43;;;;;;;;;;5075235;28;20990;-59
2021/07/13 06:13:50;;;;;;;12.87;11.77;;;;;;;;;;5074892;28;20512;-60
2021/07/13 06:16:17;;;;;;;15.03;12.77;;;;;;;;;;5075013;28;20450;-61
2021/07/13 06:18:44;;;;;;;13.13;12.03;;;;;;;;;;5075417;28;20827;-58
2021/07/13 06:21:11;;;;;;;11.00;10.10;;;;;;;;;;5074162;28;20504;-59
2021/07/13 06:23:39;;;;;;;11.70;10.60;;;;;;;;;;5074271;28;20459;-59
2021/07/13 06:26:07;;;;;;;12.30;11.10;;;;;;;;;;5074067;28;20935;-56
2021/07/13 06:28:35;;;;;;;11.93;10.90;;;;;;;;;;5074269;28;20489;-59
2021/07/13 06:31:03;;;;;;;12.03;10.97;;;;;;;;;;5073511;28;20450;-59
2021/07/13 06:33:30;;;;;;;12.60;11.50;;;;;;;;;;5074871;28;20516;-59
2021/07/13 06:35:57;;;;;;;12.23;10.93;;;;;;;;;;5074293;28;20510;-59
2021/07/13 06:38:25;;;;;;;12.70;11.20;;;;;;;;;;5074282;28;20492;-59
2021/07/13 06:40:52;;;;;;;12.57;11.23;;;;;;;;;;5074295;28;20535;-61
2021/07/13 06:43:21;;;;;;;14.90;10.47;;;;;;;;;;5074080;28;20484;-60
2021/07/13 06:45:48;;;;;;;17.40;11.33;;;;;;;;;;5073796;28;21008;-60
2021/07/13 06:48:15;;;;;;;23.20;11.03;;;;;;;;;;5074102;28;20547;-60
2021/07/13 06:50:42;;;;;;;14.77;10.80;;;;;;;;;;5074233;28;20448;-59
2021/07/13 06:53:10;;;;;;;19.40;10.60;;;;;;;;;;5074653;28;20540;-59
2021/07/13 06:55:37;;;;;;;16.63;10.33;;;;;;;;;;5073830;28;20514;-59
2021/07/13 06:58:04;;;;;;;15.30;9.97;;;;;;;;;;5074542;28;20496;-59
2021/07/13 07:00:33;;;;;;;18.33;10.50;;;;;;;;;;5074626;28;20496;-62
2021/07/13 07:03:00;;;;;;;15.23;10.03;;;;;;;;;;5073643;28;20469;-59
2021/07/13 07:05:27;;;;;;;16.30;10.13;;;;;;;;;;5073807;28;20496;-59
2021/07/13 07:07:55;;;;;;;13.03;9.90;;;;;;;;;;5073184;28;20483;-60
2021/07/13 07:10:23;;;;;;;17.70;11.00;;;;;;;;;;5073611;28;20447;-60
2021/07/13 07:12:50;;;;;;;21.50;9.37;;;;;;;;;;5073323;28;20899;-58
2021/07/13 07:15:19;;;;;;;14.87;10.23;;;;;;;;;;5073486;28;20870;-59
2021/07/13 07:17:48;;;;;;;17.60;10.80;;;;;;;;;;5073442;28;20493;-60
2021/07/13 07:20:16;;;;;;;19.10;9.17;;;;;;;;;;5073782;28;20500;-60
2021/07/13 07:22:43;;;;;;;12.90;9.50;;;;;;;;;;5073184;28;20471;-60
2021/07/13 07:25:11;;;;;;;18.33;9.07;;;;;;;;;;5073651;28;20448;-60
2021/07/13 07:27:39;;;;;;;20.73;9.37;;;;;;;;;;5073571;28;20479;-60
2021/07/13 07:30:07;;;;;;;18.67;9.20;;;;;;;;;;5073550;28;20496;-60
2021/07/13 07:32:35;;;;;;;12.80;8.30;;;;;;;;;;5073196;28;20896;-60
2021/07/13 07:35:04;;;;;;;13.93;8.53;;;;;;;;;;5073565;28;20549;-60
2021/07/13 07:37:32;;;;;;;10.50;7.70;;;;;;;;;;5073288;28;20861;-59
2021/07/13 07:39:59;;;;;;;18.67;7.97;;;;;;;;;;5073461;28;20488;-60
2021/07/13 07:42:26;;;;;;;12.33;7.23;;;;;;;;;;5072924;28;20525;-60
2021/07/13 07:44:54;;;;;;;11.13;7.70;;;;;;;;;;5073495;28;20926;-59
2021/07/13 07:47:21;;;;;;;15.60;6.73;;;;;;;;;;5074399;28;20535;-61
2021/07/13 07:49:48;;;;;;;7.60;5.93;;;;;;;;;;5073061;28;20456;-58
2021/07/13 07:52:17;;;;;;;10.30;6.37;;;;;;;;;;5073181;28;20459;-60
2021/07/13 07:54:44;;;;;;;13.57;6.93;;;;;;;;;;5073329;28;20532;-59
2021/07/13 07:57:11;;;;;;;9.70;7.10;;;;;;;;;;5072970;28;20959;-60
2021/07/13 07:59:39;;;;;;;11.10;6.57;;;;;;;;;;5072852;28;20446;-59
2021/07/13 08:02:06;;;;;;;28.00;7.10;;;;;;;;;;5072826;28;20523;-58
2021/07/13 08:04:34;;;;;;;12.00;7.40;;;;;;;;;;5072895;28;20465;-60
2021/07/13 08:07:02;;;;;;;8.70;6.57;;;;;;;;;;5072657;28;20830;-60
2021/07/13 08:09:30;;;;;;;13.20;6.80;;;;;;;;;;5072628;28;20503;-60
2021/07/13 08:11:58;;;;;;;10.73;5.90;;;;;;;;;;5072470;28;21047;-60
2021/07/13 08:14:25;;;;;;;10.43;6.57;;;;;;;;;;5072906;28;20450;-60
2021/07/13 08:16:53;;;;;;;7.70;6.07;;;;;;;;;;5072268;28;20864;-60
2021/07/13 08:19:21;;;;;;;11.23;6.80;;;;;;;;;;5072059;28;20515;-59
2021/07/13 08:21:48;;;;;;;9.70;7.07;;;;;;;;;;5072082;28;20495;-61
2021/07/13 08:24:16;;;;;;;10.27;6.30;;;;;;;;;;5072498;28;20932;-60
2021/07/13 08:26:46;;;;;;;14.30;7.00;;;;;;;;;;5072751;28;20544;-60
2021/07/13 08:29:13;;;;;;;11.30;6.57;;;;;;;;;;5072553;28;20474;-59
2021/07/13 08:31:41;;;;;;;7.80;5.43;;;;;;;;;;5073213;28;20515;-61
2021/07/13 08:34:08;;;;;;;11.33;6.40;;;;;;;;;;5073574;28;20493;-61
2021/07/13 08:36:35;;;;;;;8.40;6.13;;;;;;;;;;5073073;28;20449;-60
2021/07/13 08:39:02;;;;;;;8.97;5.70;;;;;;;;;;5072404;28;20930;-60
2021/07/13 08:41:30;;;;;;;11.73;6.20;;;;;;;;;;5072610;28;20449;-61
2021/07/13 08:43:59;;;;;;;13.27;6.10;;;;;;;;;;5072644;28;20451;-60
2021/07/13 08:46:26;;;;;;;9.90;5.90;;;;;;;;;;5072901;28;20547;-59
2021/07/13 08:48:55;;;;;;;17.10;6.47;;;;;;;;;;5074024;28;20907;-61
2021/07/13 08:51:23;;;;;;;11.23;5.73;;;;;;;;;;5072543;28;20443;-60
2021/07/13 08:53:50;;;;;;;10.80;6.20;;;;;;;;;;5074688;28;20448;-59
2021/07/13 08:56:17;;;;;;;6.20;5.60;;;;;;;;;;5076796;28;20439;-59
2021/07/13 08:58:44;;;;;;;10.23;5.57;;;;;;;;;;5076211;28;20455;-61
2021/07/13 09:01:13;;;;;;;14.17;5.80;;;;;;;;;;5076586;28;20449;-59
2021/07/13 09:03:54;;;;;;;8.60;5.23;;;;;;;;;;5076496;28;20461;-60
2021/07/13 09:06:22;;;;;;;9.23;5.70;;;;;;;;;;5076006;28;20458;-59
2021/07/13 09:08:49;;;;;;;9.30;4.20;;;;;;;;;;5076027;28;20640;-60
2021/07/13 09:11:18;;;;;;;5.63;4.67;;;;;;;;;;5075659;28;20445;-60
2021/07/13 09:13:46;;;;;;;9.10;5.50;;;;;;;;;;5075324;28;20541;-60
2021/07/13 09:16:15;;;;;;;7.07;4.47;;;;;;;;;;5075825;28;20448;-60
2021/07/13 09:18:44;;;;;;;7.40;4.90;;;;;;;;;;5076487;28;20505;-61
2021/07/13 09:21:13;;;;;;;9.73;4.70;;;;;;;;;;5075381;28;20436;-61
2021/07/13 09:23:55;;;;;;;6.70;4.17;;;;;;;;;;5075786;28;20518;-60
2021/07/13 09:26:36;;;;;;;5.40;4.07;;;;;;;;;;5075803;28;20450;-60
2021/07/13 09:29:03;;;;;;;5.03;4.13;;;;;;;;;;5075581;28;20465;-60
2021/07/13 09:31:32;;;;;;;6.70;3.93;;;;;;;;;;5075442;28;20444;-59
2021/07/13 09:33:59;;;;;;;4.73;3.40;;;;;;;;;;5075209;28;20440;-60
2021/07/13 09:36:26;;;;;;;6.07;4.37;;;;;;;;;;5075571;28;20447;-60
2021/07/13 09:38:55;;;;;;;7.93;5.30;;;;;;;;;;5075063;28;20858;-60
2021/07/13 09:41:23;;;;;;;7.47;4.83;;;;;;;;;;5075170;28;20817;-63
2021/07/13 09:43:52;;;;;;;9.30;4.57;;;;;;;;;;5075118;28;20935;-60
2021/07/13 09:46:26;;;;;;;5.50;4.23;;;;;;;;;;5075170;28;20445;-60
2021/07/13 09:49:12;;;;;;;7.57;4.40;;;;;;;;;;5075167;28;20473;-60
2021/07/13 09:51:40;;;;;;;4.73;4.13;;;;;;;;;;5074568;28;20444;-61
2021/07/13 09:54:28;;;;;;;5.57;4.27;;;;;;;;;;5074861;28;20457;-62
2021/07/13 09:56:56;;;;;;;5.40;3.87;;;;;;;;;;5075119;28;20425;-61
2021/07/13 09:59:23;;;;;;;8.07;4.07;;;;;;;;;;5075309;28;20442;-61
2021/07/13 10:01:51;;;;;;;4.70;4.30;;;;;;;;;;5075447;28;20520;-60
2021/07/13 10:04:19;;;;;;;6.27;4.57;;;;;;;;;;5075076;28;20442;-65
2021/07/13 10:06:47;;;;;;;6.27;4.40;;;;;;;;;;5074968;28;20539;-62
2021/07/13 10:09:15;;;;;;;4.20;3.90;;;;;;;;;;5074891;28;20486;-61
2021/07/13 10:11:42;;;;;;;5.37;4.23;;;;;;;;;;5074601;28;20470;-61
2021/07/13 10:14:10;;;;;;;11.17;5.50;;;;;;;;;;5074355;28;20457;-60
2021/07/13 10:16:37;;;;;;;7.07;5.17;;;;;;;;;;5074733;28;20470;-62
2021/07/13 10:19:06;;;;;;;6.87;5.40;;;;;;;;;;5074300;28;20449;-61
2021/07/13 10:21:35;;;;;;;5.53;4.87;;;;;;;;;;5074358;28;20449;-63
2021/07/13 10:24:03;;;;;;;7.97;7.03;;;;;;;;;;5074589;28;20446;-61
2021/07/13 10:26:48;;;;;;;7.07;5.63;;;;;;;;;;5073827;28;20444;-62
2021/07/13 10:29:33;;;;;;;5.40;4.90;;;;;;;;;;5073938;28;20484;-62
2021/07/13 10:32:01;;;;;;;5.67;5.17;;;;;;;;;;5073857;28;20521;-62
2021/07/13 10:34:46;;;;;;;9.80;6.40;;;;;;;;;;5073401;28;20458;-61
2021/07/13 10:37:28;;;;;;;5.73;5.23;;;;;;;;;;5074557;28;20426;-62
2021/07/13 10:39:56;;;;;;;5.70;5.27;;;;;;;;;;5074934;28;20436;-61
2021/07/13 10:42:42;;;;;;;5.90;4.87;;;;;;;;;;5074142;28;20976;-62
2021/07/13 10:45:13;;;;;;;6.07;5.57;;;;;;;;;;5073585;28;20523;-62
2021/07/13 10:47:56;;;;;;;5.40;4.90;;;;;;;;;;5073972;28;20471;-62
2021/07/13 10:50:42;;;;;;;5.33;4.93;;;;;;;;;;5074093;28;20596;-62
2021/07/13 10:53:15;;;;;;;5.93;5.10;;;;;;;;;;5075540;28;20478;-61
2021/07/13 10:56:03;;;;;;;6.00;5.40;;;;;;;;;;5075763;28;20970;-62
2021/07/13 10:58:32;;;;;;;6.07;5.57;;;;;;;;;;5070600;28;20446;-61
2021/07/13 11:01:17;;;;;;;9.87;7.13;;;;;;;;;;5074185;28;20447;-62
2021/07/13 11:03:54;;;;;;;6.53;5.97;;;;;;;;;;5074087;28;20456;-62
2021/07/13 11:06:22;;;;;;;6.07;5.53;;;;;;;;;;5073526;28;20454;-62
2021/07/13 11:08:56;;;;;;;6.13;5.53;;;;;;;;;;5074050;28;20469;-62
2021/07/13 11:11:37;;;;;;;5.73;5.33;;;;;;;;;;5073743;28;20438;-64
2021/07/13 11:14:05;;;;;;;6.80;6.23;;;;;;;;;;5074702;28;20480;-63
2021/07/13 11:16:33;;;;;;;7.27;6.57;;;;;;;;;;5073953;28;20446;-64
2021/07/13 11:19:01;;;;;;;5.97;5.47;;;;;;;;;;5073676;28;20493;-63
2021/07/13 11:21:29;;;;;;;6.43;5.83;;;;;;;;;;5072970;28;20446;-62
2021/07/13 11:23:59;;;;;;;6.70;6.10;;;;;;;;;;5072814;28;20500;-62
2021/07/13 11:26:28;;;;;;;7.33;6.73;;;;;;;;;;5073075;28;20446;-65
2021/07/13 11:28:56;;;;;;;8.03;7.33;;;;;;;;;;5073376;28;20633;-63
2021/07/13 11:31:24;;;;;;;7.37;6.87;;;;;;;;;;5072968;28;20446;-64
2021/07/13 11:33:54;;;;;;;8.13;7.53;;;;;;;;;;5073092;28;20933;-62
2021/07/13 11:36:27;;;;;;;8.80;7.67;;;;;;;;;;5072832;28;20448;-62
2021/07/13 11:38:55;;;;;;;7.57;6.87;;;;;;;;;;5073019;28;20442;-62
2021/07/13 11:41:24;;;;;;;7.83;7.23;;;;;;;;;;5072746;28;20455;-63
2021/07/13 11:43:52;;;;;;;7.87;7.30;;;;;;;;;;5072888;28;20503;-63
2021/07/13 11:46:20;;;;;;;7.87;7.30;;;;;;;;;;5073094;28;20480;-63
2021/07/13 11:48:55;;;;;;;7.80;7.20;;;;;;;;;;5073062;28;20477;-62
2021/07/13 11:51:26;;;;;;;8.13;7.53;;;;;;;;;;5074314;28;20533;-65
2021/07/13 11:54:00;;;;;;;8.13;7.43;;;;;;;;;;5073255;28;20440;-61
2021/07/13 11:56:29;;;;;;;7.47;6.97;;;;;;;;;;5072739;28;20529;-62
2021/07/13 11:58:57;;;;;;;7.30;6.80;;;;;;;;;;5072723;28;20918;-62
2021/07/13 12:01:25;;;;;;;8.50;7.70;;;;;;;;;;5073058;28;20501;-64
2021/07/13 12:03:53;;;;;;;7.70;7.00;;;;;;;;;;5072915;28;20548;-62
2021/07/13 12:06:22;;;;;;;8.10;7.40;;;;;;;;;;5073374;28;20526;-63
2021/07/13 12:08:55;;;;;;;8.90;8.00;;;;;;;;;;5073615;28;20482;-64
2021/07/13 12:11:24;;;;;;;7.63;7.10;;;;;;;;;;5073273;28;20447;-63
2021/07/13 12:13:53;;;;;;;8.60;7.83;;;;;;;;;;5072743;28;20526;-62
2021/07/13 12:16:23;;;;;;;8.00;7.33;;;;;;;;;;5073087;28;20446;-61
2021/07/13 12:18:51;;;;;;;9.30;8.60;;;;;;;;;;5072556;28;20506;-61
2021/07/13 12:21:18;;;;;;;7.63;7.03;;;;;;;;;;5072655;28;20630;-61
2021/07/13 12:23:47;;;;;;;9.50;7.40;;;;;;;;;;5072962;28;20449;-62
2021/07/13 12:26:25;;;;;;;8.40;7.70;;;;;;;;;;5073242;28;20478;-62
2021/07/13 12:29:04;;;;;;;8.07;7.47;;;;;;;;;;5074639;28;20521;-61
2021/07/13 12:31:32;;;;;;;7.70;7.10;;;;;;;;;;5076763;28;20452;-62
2021/07/13 12:33:59;;;;;;;8.27;7.60;;;;;;;;;;5076242;28;20537;-62
2021/07/13 12:36:27;;;;;;;9.43;8.73;;;;;;;;;;5076278;28;20449;-63
2021/07/13 12:38:54;;;;;;;8.20;7.50;;;;;;;;;;5076623;28;20848;-61
2021/07/13 12:41:21;;;;;;;7.83;7.27;;;;;;;;;;5075725;28;20493;-60
2021/07/13 12:43:49;;;;;;;9.00;6.77;;;;;;;;;;5075948;28;20454;-62
2021/07/13 12:46:30;;;;;;;8.50;7.70;;;;;;;;;;5076438;28;20444;-62
2021/07/13 12:48:58;;;;;;;6.83;6.23;;;;;;;;;;5075578;28;20552;-62
2021/07/13 12:51:26;;;;;;;7.20;6.60;;;;;;;;;;5075912;28;20443;-61
2021/07/13 12:54:06;;;;;;;7.30;6.70;;;;;;;;;;5076547;28;20441;-62
2021/07/13 12:56:33;;;;;;;7.50;6.83;;;;;;;;;;5075888;28;20455;-63
2021/07/13 12:59:07;;;;;;;7.50;6.80;;;;;;;;;;5075604;28;20444;-62
2021/07/13 13:01:36;;;;;;;6.90;6.40;;;;;;;;;;5075762;28;20444;-62
2021/07/13 13:04:10;;;;;;;6.43;5.93;;;;;;;;;;5076245;28;20444;-61
2021/07/13 13:06:38;;;;;;;11.00;10.20;;;;;;;;;;5075041;28;20870;-61
2021/07/13 13:09:09;;;;;;;7.07;6.47;;;;;;;;;;5075504;28;20526;-62
2021/07/13 13:11:37;;;;;;;7.03;6.37;;;;;;;;;;5075678;28;20950;-63
2021/07/13 13:14:06;;;;;;;6.10;5.70;;;;;;;;;;5075899;28;20487;-60
2021/07/13 13:16:36;;;;;;;6.33;5.90;;;;;;;;;;5075608;28;20867;-62
2021/07/13 13:19:05;;;;;;;7.07;6.57;;;;;;;;;;5075634;28;20830;-63
2021/07/13 13:21:33;;;;;;;6.13;5.70;;;;;;;;;;5075332;28;20502;-61
2021/07/13 13:24:01;;;;;;;6.80;6.30;;;;;;;;;;5075826;28;20443;-62
2021/07/13 13:26:28;;;;;;;7.07;6.50;;;;;;;;;;5075720;28;20499;-63
2021/07/13 13:28:56;;;;;;;7.87;7.23;;;;;;;;;;5075416;28;20440;-62
2021/07/13 13:31:23;;;;;;;6.70;6.30;;;;;;;;;;5075427;28;20444;-63
2021/07/13 13:33:53;;;;;;;6.97;6.37;;;;;;;;;;5075752;28;20498;-63
2021/07/13 13:36:25;;;;;;;7.37;6.87;;;;;;;;;;5075229;28;20459;-63
2021/07/13 13:38:56;;;;;;;6.87;6.37;;;;;;;;;;5074991;28;20879;-61
2021/07/13 13:41:24;;;;;;;7.60;6.80;;;;;;;;;;5075084;28;20434;-63
2021/07/13 13:43:51;;;;;;;7.07;6.47;;;;;;;;;;5075666;28;20454;-63
2021/07/13 13:46:19;;;;;;;9.27;7.17;;;;;;;;;;5075434;28;20624;-62
2021/07/13 13:48:46;;;;;;;7.60;7.00;;;;;;;;;;5075467;28;20445;-62
2021/07/13 13:51:13;;;;;;;7.17;6.67;;;;;;;;;;5075118;28;20482;-61
2021/07/13 13:53:43;;;;;;;7.33;6.83;;;;;;;;;;5075342;28;20527;-61
2021/07/13 13:56:10;;;;;;;7.63;7.10;;;;;;;;;;5074958;28;20445;-63
2021/07/13 13:58:38;;;;;;;7.57;6.87;;;;;;;;;;5074763;28;20445;-62
2021/07/13 14:01:06;;;;;;;7.30;6.77;;;;;;;;;;5074721;28;21015;-63
2021/07/13 14:03:33;;;;;;;8.30;7.70;;;;;;;;;;5074986;28;20522;-63
2021/07/13 14:06:00;;;;;;;7.90;7.30;;;;;;;;;;5074834;28;20441;-62
2021/07/13 14:08:28;;;;;;;7.37;6.87;;;;;;;;;;5074603;28;20438;-61
2021/07/13 14:10:56;;;;;;;7.67;6.97;;;;;;;;;;5074962;28;20485;-62
2021/07/13 14:13:24;;;;;;;7.30;6.80;;;;;;;;;;5074531;28;20527;-62
2021/07/13 14:15:51;;;;;;;6.83;6.33;;;;;;;;;;5074673;28;20879;-61
2021/07/13 14:18:18;;;;;;;8.23;7.63;;;;;;;;;;5074738;28;20914;-62
2021/07/13 14:20:46;;;;;;;8.00;7.40;;;;;;;;;;5074297;28;20897;-62
2021/07/13 14:23:13;;;;;;;7.87;7.27;;;;;;;;;;5074549;28;20521;-61
2021/07/13 14:25:40;;;;;;;7.40;6.87;;;;;;;;;;5074759;28;20446;-62
2021/07/13 14:28:09;;;;;;;7.43;6.90;;;;;;;;;;5074910;28;20508;-62
2021/07/13 14:30:36;;;;;;;8.03;7.23;;;;;;;;;;5074232;28;20472;-61
2021/07/13 14:33:04;;;;;;;7.47;6.97;;;;;;;;;;5074304;28;20475;-62
2021/07/13 14:35:31;;;;;;;7.40;6.70;;;;;;;;;;5074614;28;20504;-60
2021/07/13 14:37:58;;;;;;;7.63;7.00;;;;;;;;;;5074722;28;20450;-62
2021/07/13 14:40:25;;;;;;;7.43;6.83;;;;;;;;;;5075244;28;20450;-62
2021/07/13 14:42:53;;;;;;;7.03;6.53;;;;;;;;;;5074339;28;20529;-62